createdAt,value
2018-08-28T00:00:08.508Z,101156.30
2018-08-28T00:02:37.957Z,101149.42
2018-08-28T00:05:07.474Z,101157.47
2018-08-28T00:07:37.438Z,101152.23
2018-08-28T00:10:07.483Z,101155.44
2018-08-28T00:12:36.969Z,101154.09
2018-08-28T00:15:06.614Z,101150.93
2018-08-28T00:17:36.240Z,101154.27
2018-08-28T00:20:06.319Z,101154.30
2018-08-28T00:22:35.832Z,101154.27
2018-08-28T00:25:05.722Z,101148.44
2018-08-28T00:27:35.217Z,101154.13
2018-08-28T00:30:04.883Z,101150.93
2018-08-28T00:32:34.666Z,101154.79
2018-08-28T00:35:04.190Z,101161.98
2018-08-28T00:37:34.099Z,101168.03
2018-08-28T00:40:04.204Z,101165.67
2018-08-28T00:42:33.892Z,101173.23
2018-08-28T00:45:04.015Z,101168.72
2018-08-28T00:47:33.507Z,101167.05
2018-08-28T00:50:03.079Z,101171.37
2018-08-28T00:52:33.129Z,101174.24
2018-08-28T00:55:03.320Z,101173.91
2018-08-28T00:57:33.432Z,101175.23
2018-08-28T01:00:02.880Z,101181.27
2018-08-28T01:02:32.579Z,101176.76
2018-08-28T01:05:02.122Z,101178.76
2018-08-28T01:07:31.583Z,101183.44
2018-08-28T01:10:01.191Z,101181.27
2018-08-28T01:12:30.675Z,101186.66
2018-08-28T01:15:00.128Z,101177.60
2018-08-28T01:17:30.442Z,101185.13
2018-08-28T01:20:00.303Z,101186.16
2018-08-28T01:22:29.635Z,101188.16
2018-08-28T01:24:59.160Z,101188.33
2018-08-28T01:27:29.186Z,101194.88
2018-08-28T01:29:59.183Z,101194.52
2018-08-28T01:32:29.530Z,101190.14
2018-08-28T01:34:59.837Z,101187.45
2018-08-28T01:37:29.966Z,101187.81
2018-08-28T01:39:59.866Z,101185.16
2018-08-28T01:42:29.379Z,101189.53
2018-08-28T01:44:59.526Z,101180.83
2018-08-28T01:47:29.047Z,101184.36
2018-08-28T01:49:58.484Z,101187.20
2018-08-28T01:52:28.246Z,101188.37
2018-08-28T01:54:58.266Z,101183.50
2018-08-28T01:57:27.638Z,101181.33
2018-08-28T01:59:57.350Z,101188.52
2018-08-28T02:02:27.213Z,101186.53
2018-08-28T02:04:56.791Z,101191.58
2018-08-28T02:07:26.470Z,101195.75
2018-08-28T02:09:55.956Z,101196.60
2018-08-28T02:12:25.501Z,101196.27
2018-08-28T02:14:54.984Z,101199.80
2018-08-28T02:17:24.479Z,101195.78
2018-08-28T02:19:54.101Z,101199.63
2018-08-28T02:22:23.962Z,101198.72
2018-08-28T02:24:54.196Z,101196.09
2018-08-28T02:27:23.502Z,101192.56
2018-08-28T02:29:53.267Z,101196.95
2018-08-28T02:32:22.983Z,101197.75
2018-08-28T02:34:52.923Z,101200.56
2018-08-28T02:37:22.795Z,101204.44
2018-08-28T02:39:52.309Z,101204.23
2018-08-28T02:42:22.301Z,101210.91
2018-08-28T02:44:52.383Z,101206.19
2018-08-28T02:47:22.626Z,101209.48
2018-08-28T02:49:52.176Z,101212.59
2018-08-28T02:52:21.661Z,101216.27
2018-08-28T02:54:51.548Z,101215.31
2018-08-28T02:57:21.066Z,101220.66
2018-08-28T02:59:50.735Z,101221.48
2018-08-28T03:02:20.519Z,101219.33
2018-08-28T03:04:50.381Z,101218.72
2018-08-28T03:07:19.930Z,101219.77
2018-08-28T03:09:49.454Z,101222.02
2018-08-28T03:12:19.107Z,101221.79
2018-08-28T03:14:48.824Z,101223.75
2018-08-28T03:17:18.920Z,101228.91
2018-08-28T03:19:48.939Z,101227.58
2018-08-28T03:22:18.614Z,101223.37
2018-08-28T03:24:48.504Z,101231.18
2018-08-28T03:27:18.018Z,101228.27
2018-08-28T03:29:47.948Z,101228.17
2018-08-28T03:32:18.549Z,101234.55
2018-08-28T03:34:47.927Z,101231.77
2018-08-28T03:37:17.637Z,101235.30
2018-08-28T03:39:47.163Z,101240.77
2018-08-28T03:42:17.568Z,101238.16
2018-08-28T03:44:47.101Z,101243.23
2018-08-28T03:47:16.886Z,101240.66
2018-08-28T03:49:52.768Z,101241.92
2018-08-28T03:52:22.276Z,101247.07
2018-08-28T03:54:52.114Z,101253.21
2018-08-28T03:57:22.162Z,101258.88
2018-08-28T03:59:51.793Z,101261.13
2018-08-28T04:02:21.530Z,101261.87
2018-08-28T04:04:50.794Z,101264.00
2018-08-28T04:07:20.747Z,101261.02
2018-08-28T04:09:50.648Z,101264.00
2018-08-28T04:12:21.025Z,101263.17
2018-08-28T04:14:50.488Z,101260.17
2018-08-28T04:17:20.433Z,101263.00
2018-08-28T04:19:50.203Z,101258.45
2018-08-28T04:22:19.591Z,101261.45
2018-08-28T04:24:49.843Z,101262.82
2018-08-28T04:27:19.649Z,101266.22
2018-08-28T04:29:49.418Z,101271.99
2018-08-28T04:32:19.404Z,101262.77
2018-08-28T04:34:48.774Z,101262.93
2018-08-28T04:37:18.860Z,101268.92
2018-08-28T04:39:49.092Z,101270.45
2018-08-28T04:42:18.519Z,101276.64
2018-08-28T04:44:48.426Z,101274.11
2018-08-28T04:47:19.101Z,101276.85
2018-08-28T04:49:48.894Z,101275.00
2018-08-28T04:52:18.366Z,101280.23
2018-08-28T04:54:48.615Z,101281.50
2018-08-28T04:57:19.042Z,101279.13
2018-08-28T04:59:48.354Z,101283.91
2018-08-28T05:02:17.858Z,101281.56
2018-08-28T05:04:48.330Z,101287.99
2018-08-28T05:07:17.866Z,101289.88
2018-08-28T05:09:47.831Z,101289.33
2018-08-28T05:12:17.271Z,101289.56
2018-08-28T05:14:47.012Z,101290.48
2018-08-28T05:17:16.527Z,101290.83
2018-08-28T05:19:46.274Z,101288.59
2018-08-28T05:22:16.758Z,101282.58
2018-08-28T05:24:46.420Z,101293.11
2018-08-28T05:27:15.963Z,101291.44
2018-08-28T05:29:45.507Z,101301.26
2018-08-28T05:32:15.428Z,101301.70
2018-08-28T05:34:45.592Z,101294.97
2018-08-28T05:37:15.650Z,101305.05
2018-08-28T05:39:45.599Z,101304.32
2018-08-28T05:42:15.083Z,101309.30
2018-08-28T05:44:45.315Z,101306.27
2018-08-28T05:47:15.675Z,101305.39
2018-08-28T05:49:45.465Z,101310.05
2018-08-28T05:52:15.102Z,101312.78
2018-08-28T05:54:45.268Z,101310.98
2018-08-28T05:57:14.607Z,101313.68
2018-08-28T05:59:44.213Z,101316.67
2018-08-28T06:02:14.062Z,101317.28
2018-08-28T06:04:44.054Z,101319.02
2018-08-28T06:07:13.588Z,101323.77
2018-08-28T06:09:43.256Z,101327.78
2018-08-28T06:12:12.782Z,101326.70
2018-08-28T06:14:42.941Z,101326.02
2018-08-28T06:17:12.415Z,101329.44
2018-08-28T06:19:42.430Z,101329.55
2018-08-28T06:22:12.406Z,101333.88
2018-08-28T06:24:41.928Z,101332.42
2018-08-28T06:27:11.443Z,101332.09
2018-08-28T06:29:41.570Z,101334.28
2018-08-28T06:32:11.078Z,101322.25
2018-08-28T06:34:40.603Z,101337.71
2018-08-28T06:37:10.276Z,101337.38
2018-08-28T06:39:40.630Z,101338.27
2018-08-28T06:42:10.318Z,101334.63
2018-08-28T06:44:39.827Z,101333.11
2018-08-28T06:47:09.344Z,101339.53
2018-08-28T06:49:39.000Z,101339.71
2018-08-28T06:52:08.375Z,101344.97
2018-08-28T06:54:38.496Z,101344.72
2018-08-28T06:57:08.250Z,101338.89
2018-08-28T06:59:37.737Z,101345.14
2018-08-28T07:02:08.212Z,101344.63
2018-08-28T07:04:37.960Z,101340.44
2018-08-28T07:07:07.766Z,101340.31
2018-08-28T07:09:37.847Z,101336.45
2018-08-28T07:12:07.931Z,101335.80
2018-08-28T07:14:38.172Z,101340.80
2018-08-28T07:17:08.163Z,101332.77
2018-08-28T07:19:37.594Z,101334.30
2018-08-28T07:22:07.736Z,101336.34
2018-08-28T07:24:37.440Z,101329.58
2018-08-28T07:27:07.126Z,101328.42
2018-08-28T07:29:37.330Z,101334.94
2018-08-28T07:32:07.396Z,101331.87
2018-08-28T07:34:37.307Z,101330.70
2018-08-28T07:37:06.827Z,101336.50
2018-08-28T07:39:37.056Z,101336.00
2018-08-28T07:42:08.400Z,101339.02
2018-08-28T07:44:38.409Z,101334.45
2018-08-28T07:47:08.922Z,101336.17
2018-08-28T07:49:39.063Z,101333.06
2018-08-28T07:52:08.756Z,101333.65
2018-08-28T07:54:38.500Z,101330.16
2018-08-28T07:57:08.375Z,101333.05
2018-08-28T07:59:38.007Z,101342.13
2018-08-28T08:02:07.557Z,101346.69
2018-08-28T08:04:37.491Z,101351.91
2018-08-28T08:07:07.643Z,101340.02
2018-08-28T08:09:37.894Z,101343.45
2018-08-28T08:12:07.279Z,101349.67
2018-08-28T08:14:37.304Z,101350.38
2018-08-28T08:17:06.748Z,101344.61
2018-08-28T08:19:36.183Z,101345.88
2018-08-28T08:22:05.899Z,101347.26
2018-08-28T08:24:36.427Z,101354.63
2018-08-28T08:27:06.120Z,101351.66
2018-08-28T08:29:36.058Z,101352.58
2018-08-28T08:32:05.526Z,101338.02
2018-08-28T08:34:35.083Z,101333.59
2018-08-28T08:37:04.981Z,101330.33
2018-08-28T08:39:34.256Z,101329.57
2018-08-28T08:42:04.410Z,101337.55
2018-08-28T08:44:34.098Z,101337.98
2018-08-28T08:47:03.635Z,101329.44
2018-08-28T08:49:33.531Z,101335.45
2018-08-28T08:52:03.059Z,101348.55
2018-08-28T08:54:32.914Z,101349.62
2018-08-28T08:57:03.494Z,101347.91
2018-08-28T08:59:33.799Z,101348.89
2018-08-28T09:02:03.328Z,101355.26
2018-08-28T09:04:33.178Z,101358.27
2018-08-28T09:07:02.439Z,101360.09
2018-08-28T09:09:32.230Z,101355.08
2018-08-28T09:12:01.523Z,101351.09
2018-08-28T09:14:31.220Z,101352.44
2018-08-28T09:17:01.440Z,101342.84
2018-08-28T09:19:31.287Z,101345.41
2018-08-28T09:22:01.039Z,101343.37
2018-08-28T09:24:30.260Z,101341.30
2018-08-28T09:27:01.154Z,101337.95
2018-08-28T09:29:30.804Z,101340.16
2018-08-28T09:32:00.721Z,101340.16
2018-08-28T09:34:30.130Z,101338.33
2018-08-28T09:36:59.594Z,101342.48
2018-08-28T09:39:29.123Z,101338.61
2018-08-28T09:41:58.865Z,101329.70
2018-08-28T09:44:28.831Z,101330.99
2018-08-28T09:46:58.524Z,101328.79
2018-08-28T09:49:28.824Z,101324.21
2018-08-28T09:51:58.511Z,101328.46
2018-08-28T09:54:27.978Z,101323.97
2018-08-28T09:56:57.517Z,101320.70
2018-08-28T09:59:27.015Z,101318.58
2018-08-28T10:01:57.167Z,101298.95
2018-08-28T10:04:27.239Z,101312.92
2018-08-28T10:06:56.967Z,101313.63
2018-08-28T10:09:26.637Z,101313.55
2018-08-28T10:11:55.954Z,101310.86
2018-08-28T10:14:25.937Z,101303.20
2018-08-28T10:16:55.554Z,101287.59
2018-08-28T10:19:25.111Z,101286.11
2018-08-28T10:21:54.776Z,101279.87
2018-08-28T10:24:24.103Z,101281.23
2018-08-28T10:26:53.594Z,101267.06
2018-08-28T10:29:23.121Z,101268.86
2018-08-28T10:31:52.832Z,101234.03
2018-08-28T10:34:22.635Z,101258.05
2018-08-28T10:36:53.256Z,101271.73
2018-08-28T10:39:23.132Z,101274.41
2018-08-28T10:41:54.598Z,101269.67
2018-08-28T10:44:23.844Z,101269.95
2018-08-28T10:46:53.904Z,101271.01
2018-08-28T10:49:23.270Z,101255.09
2018-08-28T10:51:53.300Z,101254.19
2018-08-28T10:54:23.235Z,101247.46
2018-08-28T10:56:53.506Z,101256.94
2018-08-28T10:59:22.889Z,101250.34
2018-08-28T11:01:53.238Z,101248.56
2018-08-28T11:04:22.499Z,101240.02
2018-08-28T11:06:52.238Z,101244.23
2018-08-28T11:09:21.797Z,101237.83
2018-08-28T11:11:51.841Z,101236.58
2018-08-28T11:14:22.183Z,101232.81
2018-08-28T11:16:51.723Z,101230.94
2018-08-28T11:19:21.613Z,101234.16
2018-08-28T11:21:51.332Z,101229.67
2018-08-28T11:24:20.870Z,101235.59
2018-08-28T11:26:50.567Z,101219.21
2018-08-28T11:29:20.479Z,101225.20
2018-08-28T11:31:49.765Z,101214.53
2018-08-28T11:34:20.287Z,101217.41
2018-08-28T11:36:49.815Z,101217.88
2018-08-28T11:39:19.632Z,101218.07
2018-08-28T11:41:48.978Z,101215.08
2018-08-28T11:44:18.567Z,101211.00
2018-08-28T11:46:47.981Z,101208.61
2018-08-28T11:49:17.999Z,101220.62
2018-08-28T11:51:47.469Z,101225.09
2018-08-28T11:54:17.406Z,101210.75
2018-08-28T11:56:46.842Z,101206.58
2018-08-28T11:59:16.627Z,101203.45
2018-08-28T12:01:46.042Z,101194.96
2018-08-28T12:04:15.601Z,101190.17
2018-08-28T12:06:45.907Z,101194.52
2018-08-28T12:09:15.727Z,101193.57
2018-08-28T12:11:44.987Z,101185.41
2018-08-28T12:14:14.830Z,101186.77
2018-08-28T12:16:44.497Z,101195.40
2018-08-28T12:19:14.503Z,101189.76
2018-08-28T12:21:43.923Z,101187.81
2018-08-28T12:24:14.242Z,101181.28
2018-08-28T12:26:44.624Z,101175.14
2018-08-28T12:29:14.079Z,101181.89
2018-08-28T12:31:43.587Z,101171.23
2018-08-28T12:34:13.135Z,101174.14
2018-08-28T12:36:42.831Z,101166.84
2018-08-28T12:39:12.546Z,101165.23
2018-08-28T12:41:42.407Z,101162.08
2018-08-28T12:44:12.009Z,101161.16
2018-08-28T12:46:41.474Z,101150.53
2018-08-28T12:49:16.135Z,101158.74
2018-08-28T12:51:46.210Z,101143.83
2018-08-28T12:54:16.030Z,101141.49
2018-08-28T12:56:45.800Z,101143.09
2018-08-28T12:59:15.801Z,101138.78
2018-08-28T13:01:45.241Z,101139.09
2018-08-28T13:04:15.054Z,101124.25
2018-08-28T13:06:45.505Z,101126.90
2018-08-28T13:09:15.377Z,101119.88
2018-08-28T13:11:44.899Z,101116.91
2018-08-28T13:14:14.244Z,101113.22
2018-08-28T13:16:44.063Z,101112.63
2018-08-28T13:19:13.407Z,101109.03
2018-08-28T13:21:42.925Z,101107.67
2018-08-28T13:24:13.049Z,101096.75
2018-08-28T13:26:42.757Z,101095.97
2018-08-28T13:29:12.486Z,101090.95
2018-08-28T13:31:42.575Z,101095.84
2018-08-28T13:34:12.069Z,101084.72
2018-08-28T13:36:42.076Z,101083.30
2018-08-28T13:39:12.231Z,101080.44
2018-08-28T13:41:42.294Z,101078.77
2018-08-28T13:44:12.593Z,101082.77
2018-08-28T13:46:41.855Z,101079.16
2018-08-28T13:49:11.531Z,101084.80
2018-08-28T13:51:41.331Z,101078.11
2018-08-28T13:54:11.420Z,101073.89
2018-08-28T13:56:40.728Z,101073.59
2018-08-28T13:59:10.800Z,101066.77
2018-08-28T14:01:40.529Z,101072.22
2018-08-28T14:04:10.350Z,101069.31
2018-08-28T14:06:39.754Z,101062.81
2018-08-28T14:09:09.895Z,101065.47
2018-08-28T14:11:39.974Z,101050.63
2018-08-28T14:14:09.911Z,101055.06
2018-08-28T14:16:39.399Z,101060.70
2018-08-28T14:19:09.755Z,101053.03
2018-08-28T14:21:39.919Z,101048.16
2018-08-28T14:24:09.575Z,101051.77
2018-08-28T14:26:39.161Z,101049.72
2018-08-28T14:29:08.559Z,101044.78
2018-08-28T14:31:38.526Z,101037.09
2018-08-28T14:34:07.863Z,101041.36
2018-08-28T14:36:37.861Z,101041.98
2018-08-28T14:39:08.042Z,101035.23
2018-08-28T14:41:38.580Z,101028.28
2018-08-28T14:44:09.723Z,101029.04
2018-08-28T14:46:39.369Z,101024.64
2018-08-28T14:49:09.050Z,101012.67
2018-08-28T14:51:38.425Z,101018.17
2018-08-28T14:54:08.331Z,101010.83
2018-08-28T14:56:38.639Z,101017.86
2018-08-28T14:59:07.851Z,101012.51
2018-08-28T15:01:37.708Z,101013.83
2018-08-28T15:04:07.152Z,101016.28
2018-08-28T15:06:37.074Z,101011.75
2018-08-28T15:09:08.191Z,101000.81
2018-08-28T15:11:37.963Z,101000.30
2018-08-28T15:14:07.458Z,100995.69
2018-08-28T15:16:37.228Z,100997.59
2018-08-28T15:19:06.721Z,100998.48
2018-08-28T15:21:36.361Z,100992.30
2018-08-28T15:24:05.879Z,100978.89
2018-08-28T15:26:35.180Z,100986.73
2018-08-28T15:29:04.482Z,100987.84
2018-08-28T15:31:34.175Z,100981.02
2018-08-28T15:34:04.326Z,100977.59
2018-08-28T15:36:33.818Z,100976.70
2018-08-28T15:39:03.490Z,100980.97
2018-08-28T15:41:33.272Z,100973.39
2018-08-28T15:44:03.359Z,100980.93
2018-08-28T15:46:33.097Z,100980.77
2018-08-28T15:49:02.935Z,100981.87
2018-08-28T15:51:32.388Z,100976.36
2018-08-28T15:54:02.239Z,100977.80
2018-08-28T15:56:31.670Z,100972.16
2018-08-28T15:59:01.192Z,100968.47
2018-08-28T16:01:30.716Z,100972.92
2018-08-28T16:04:00.221Z,100974.70
2018-08-28T16:06:29.760Z,100973.64
2018-08-28T16:08:59.814Z,100965.59
2018-08-28T16:11:29.700Z,100957.33
2018-08-28T16:13:59.223Z,100959.88
2018-08-28T16:16:29.119Z,100964.20
2018-08-28T16:18:59.019Z,100953.86
2018-08-28T16:21:32.530Z,100953.34
2018-08-28T16:24:01.991Z,100950.30
2018-08-28T16:26:31.491Z,100960.55
2018-08-28T16:29:01.527Z,100953.89
2018-08-28T16:31:31.314Z,100954.44
2018-08-28T16:34:01.260Z,100948.80
2018-08-28T16:36:31.557Z,100946.34
2018-08-28T16:39:01.926Z,100949.77
2018-08-28T16:41:31.807Z,100939.34
2018-08-28T16:44:01.351Z,100930.71
2018-08-28T16:46:30.811Z,100933.44
2018-08-28T16:49:00.084Z,100931.03
2018-08-28T16:51:30.219Z,100925.61
2018-08-28T16:53:59.719Z,100925.50
2018-08-28T16:56:29.201Z,100912.25
2018-08-28T16:58:58.786Z,100916.59
2018-08-28T17:01:28.126Z,100910.91
2018-08-28T17:03:57.336Z,100911.18
2018-08-28T17:06:27.007Z,100909.89
2018-08-28T17:08:57.005Z,100911.52
2018-08-28T17:11:26.250Z,100909.41
2018-08-28T17:13:55.574Z,100913.26
2018-08-28T17:16:25.062Z,100908.80
2018-08-28T17:18:54.739Z,100902.73
2018-08-28T17:21:25.054Z,100904.47
2018-08-28T17:23:54.559Z,100899.95
2018-08-28T17:26:24.283Z,100902.48
2018-08-28T17:28:53.780Z,100897.72
2018-08-28T17:31:23.506Z,100897.98
2018-08-28T17:33:53.426Z,100895.39
2018-08-28T17:36:23.159Z,100900.67
2018-08-28T17:38:52.625Z,100902.83
2018-08-28T17:41:22.458Z,100898.22
2018-08-28T17:43:52.074Z,100899.34
2018-08-28T17:46:21.988Z,100895.00
2018-08-28T17:48:51.566Z,100890.47
2018-08-28T17:51:21.184Z,100889.97
2018-08-28T17:53:50.700Z,100890.08
2018-08-28T17:56:20.967Z,100890.53
2018-08-28T17:58:50.544Z,100893.47
2018-08-28T18:01:20.230Z,100900.36
2018-08-28T18:03:49.551Z,100900.06
2018-08-28T18:06:19.858Z,100897.28
2018-08-28T18:08:52.327Z,100899.88
2018-08-28T18:11:22.174Z,100901.43
2018-08-28T18:13:52.070Z,100899.77
2018-08-28T18:16:21.624Z,100902.59
2018-08-28T18:18:51.482Z,100907.47
2018-08-28T18:21:21.011Z,100910.19
2018-08-28T18:23:50.232Z,100909.97
2018-08-28T18:26:19.950Z,100906.23
2018-08-28T18:28:49.515Z,100903.44
2018-08-28T18:31:18.994Z,100907.08
2018-08-28T18:33:48.543Z,100907.89
2018-08-28T18:36:18.216Z,100905.59
2018-08-28T18:38:49.512Z,100905.55
2018-08-28T18:41:18.866Z,100902.93
2018-08-28T18:43:48.595Z,100899.62
2018-08-28T18:46:18.075Z,100895.27
2018-08-28T18:48:47.599Z,100899.70
2018-08-28T18:51:16.956Z,100907.37
2018-08-28T18:53:46.436Z,100905.17
2018-08-28T18:56:16.297Z,100902.23
2018-08-28T18:58:45.620Z,100907.83
2018-08-28T19:01:15.198Z,100905.43
2018-08-28T19:03:44.982Z,100902.50
2018-08-28T19:06:14.765Z,100904.87
2018-08-28T19:08:45.468Z,100905.91
2018-08-28T19:11:15.032Z,100899.74
2018-08-28T19:13:45.045Z,100910.36
2018-08-28T19:16:14.787Z,100907.81
2018-08-28T19:18:44.318Z,100902.93
2018-08-28T19:21:13.835Z,100908.78
2018-08-28T19:23:43.699Z,100904.80
2018-08-28T19:26:13.215Z,100906.65
2018-08-28T19:28:42.782Z,100900.23
2018-08-28T19:31:12.220Z,100903.12
2018-08-28T19:33:41.609Z,100896.66
2018-08-28T19:36:11.421Z,100903.74
2018-08-28T19:38:41.073Z,100905.94
2018-08-28T19:41:11.502Z,100898.77
2018-08-28T19:43:41.011Z,100907.21
2018-08-28T19:46:11.135Z,100905.98
2018-08-28T19:48:40.981Z,100911.91
2018-08-28T19:51:10.510Z,100909.85
2018-08-28T19:53:40.046Z,100908.78
2018-08-28T19:56:10.416Z,100911.78
2018-08-28T19:58:40.083Z,100909.81
2018-08-28T20:01:09.595Z,100914.09
2018-08-28T20:03:39.121Z,100906.67
2018-08-28T20:06:08.648Z,100910.50
2018-08-28T20:08:38.515Z,100904.22
2018-08-28T20:11:08.652Z,100901.79
2018-08-28T20:13:38.555Z,100895.56
2018-08-28T20:16:08.518Z,100896.47
2018-08-28T20:18:38.635Z,100892.52
2018-08-28T20:21:09.171Z,100891.80
2018-08-28T20:23:39.218Z,100898.85
2018-08-28T20:26:09.394Z,100901.23
2018-08-28T20:28:39.643Z,100898.98
2018-08-28T20:31:09.703Z,100901.36
2018-08-28T20:33:39.212Z,100899.12
2018-08-28T20:36:08.825Z,100898.09
2018-08-28T20:38:38.788Z,100894.95
2018-08-28T20:41:08.277Z,100887.53
2018-08-28T20:43:37.590Z,100886.05
2018-08-28T20:46:07.259Z,100887.41
2018-08-28T20:48:37.004Z,100887.93
2018-08-28T20:51:07.290Z,100884.21
2018-08-28T20:53:37.208Z,100881.75
2018-08-28T20:56:06.798Z,100875.70
2018-08-28T20:58:36.633Z,100877.72
2018-08-28T21:01:06.556Z,100874.84
2018-08-28T21:03:36.275Z,100874.35
2018-08-28T21:06:06.064Z,100867.67
2018-08-28T21:08:35.581Z,100863.46
2018-08-28T21:11:05.391Z,100870.81
2018-08-28T21:13:35.054Z,100867.30
2018-08-28T21:16:04.978Z,100859.23
2018-08-28T21:18:34.941Z,100856.98
2018-08-28T21:21:04.859Z,100859.44
2018-08-28T21:23:34.295Z,100859.12
2018-08-28T21:26:03.788Z,100856.75
2018-08-28T21:28:33.643Z,100855.72
2018-08-28T21:31:03.893Z,100856.29
2018-08-28T21:33:33.543Z,100858.73
2018-08-28T21:36:03.056Z,100844.70
2018-08-28T21:38:32.791Z,100847.42
2018-08-28T21:41:02.497Z,100851.59
2018-08-28T21:43:32.186Z,100847.11
2018-08-28T21:46:01.689Z,100846.72
2018-08-28T21:48:31.358Z,100851.20
2018-08-28T21:51:00.868Z,100847.53
2018-08-28T21:53:30.183Z,100841.24
2018-08-28T21:55:59.911Z,100847.56
2018-08-28T21:58:30.248Z,100838.02
2018-08-28T22:01:04.999Z,100841.24
2018-08-28T22:03:35.042Z,100834.06
2018-08-28T22:06:04.947Z,100833.72
2018-08-28T22:08:34.238Z,100827.98
2018-08-28T22:11:04.199Z,100829.94
2018-08-28T22:13:33.900Z,100825.31
2018-08-28T22:16:03.594Z,100825.48
2018-08-28T22:18:33.655Z,100828.45
2018-08-28T22:21:03.159Z,100833.91
2018-08-28T22:23:33.283Z,100842.65
2018-08-28T22:26:02.635Z,100844.84
2018-08-28T22:28:32.571Z,100834.88
2018-08-28T22:31:01.997Z,100832.90
2018-08-28T22:33:31.722Z,100834.46
2018-08-28T22:36:01.456Z,100837.47
2018-08-28T22:38:30.886Z,100838.10
2018-08-28T22:41:01.229Z,100841.03
2018-08-28T22:43:30.658Z,100842.47
2018-08-28T22:46:01.184Z,100825.76
2018-08-28T22:48:31.169Z,100837.44
2018-08-28T22:51:00.958Z,100837.56
2018-08-28T22:53:30.836Z,100830.77
2018-08-28T22:56:00.533Z,100829.98
2018-08-28T22:58:30.023Z,100828.88
2018-08-28T23:00:59.542Z,100821.41
2018-08-28T23:03:29.917Z,100821.34
2018-08-28T23:05:59.750Z,100823.49
2018-08-28T23:08:30.059Z,100815.77
2018-08-28T23:11:00.190Z,100813.02
2018-08-28T23:13:30.354Z,100812.44
2018-08-28T23:16:00.037Z,100815.38
2018-08-28T23:18:30.019Z,100809.36
2018-08-28T23:20:59.846Z,100811.74
2018-08-28T23:23:29.390Z,100816.41
2018-08-28T23:25:59.509Z,100821.91
2018-08-28T23:28:29.666Z,100810.85
2018-08-28T23:30:59.303Z,100808.44
2018-08-28T23:33:29.287Z,100807.00
2018-08-28T23:35:58.751Z,100808.80
2018-08-28T23:38:28.427Z,100804.17
2018-08-28T23:40:58.150Z,100794.36
2018-08-28T23:43:27.691Z,100795.28
2018-08-28T23:45:57.378Z,100795.30
2018-08-28T23:48:27.581Z,100792.68
2018-08-28T23:50:57.598Z,100796.27
2018-08-28T23:53:27.387Z,100797.09
2018-08-28T23:55:57.093Z,100795.63
2018-08-28T23:58:26.935Z,100794.45
